createdAt,value
2022-10-28T00:02:25.345Z,74.03
2022-10-28T00:05:29.540Z,73.94
2022-10-28T00:08:33.422Z,73.80
2022-10-28T00:11:36.383Z,73.94
2022-10-28T00:14:39.350Z,73.77
2022-10-28T00:17:42.227Z,73.74
2022-10-28T00:20:45.066Z,73.71
2022-10-28T00:23:48.045Z,73.86
2022-10-28T00:26:50.940Z,73.73
2022-10-28T00:29:53.806Z,73.70
2022-10-28T00:32:56.623Z,73.73
2022-10-28T00:36:13.603Z,73.72
2022-10-28T00:39:21.868Z,73.63
2022-10-28T00:42:24.671Z,73.61
2022-10-28T00:45:27.977Z,73.73
2022-10-28T00:48:30.952Z,73.68
2022-10-28T00:51:35.842Z,73.69
2022-10-28T00:54:40.076Z,73.61
2022-10-28T00:57:44.241Z,73.69
2022-10-28T01:00:47.093Z,73.78
2022-10-28T01:03:50.000Z,73.69
2022-10-28T01:06:54.034Z,73.77
2022-10-28T01:09:56.969Z,73.57
2022-10-28T01:13:24.835Z,73.61
2022-10-28T01:16:46.880Z,73.83
2022-10-28T01:20:23.860Z,73.79
2022-10-28T01:23:29.406Z,73.64
2022-10-28T01:27:08.501Z,73.61
2022-10-28T01:30:20.392Z,73.57
2022-10-28T01:33:48.599Z,73.44
2022-10-28T01:36:57.596Z,73.49
2022-10-28T01:40:15.101Z,73.55
2022-10-28T01:43:26.831Z,73.68
2022-10-28T01:46:48.223Z,73.83
2022-10-28T01:50:08.165Z,73.72
2022-10-28T01:53:16.943Z,73.73
2022-10-28T01:56:26.851Z,73.87
2022-10-28T01:59:31.652Z,74.02
2022-10-28T02:02:37.438Z,74.10
2022-10-28T02:05:48.601Z,74.14
2022-10-28T02:09:06.742Z,74.18
2022-10-28T02:12:28.870Z,74.37
2022-10-28T02:15:45.992Z,74.58
2022-10-28T02:19:02.056Z,74.59
2022-10-28T02:22:15.808Z,74.68
2022-10-28T02:25:26.216Z,74.64
2022-10-28T02:28:39.569Z,74.83
2022-10-28T02:31:51.052Z,74.94
2022-10-28T02:34:58.352Z,74.79
2022-10-28T02:38:05.767Z,74.85
2022-10-28T02:41:27.409Z,74.79
2022-10-28T02:44:35.180Z,74.87
2022-10-28T02:47:41.390Z,74.87
2022-10-28T02:50:53.619Z,74.88
2022-10-28T02:54:00.299Z,74.94
2022-10-28T02:57:08.956Z,75.06
2022-10-28T03:00:18.016Z,75.02
2022-10-28T03:03:21.058Z,75.01
2022-10-28T03:06:26.833Z,74.95
2022-10-28T03:09:30.048Z,74.99
2022-10-28T03:12:32.964Z,75.00
2022-10-28T03:15:35.858Z,74.98
2022-10-28T03:18:38.742Z,74.98
2022-10-28T03:21:41.551Z,74.98
2022-10-28T03:24:44.407Z,74.97
2022-10-28T03:27:47.251Z,74.95
2022-10-28T03:30:50.057Z,75.09
2022-10-28T03:33:52.956Z,75.12
2022-10-28T03:36:55.867Z,75.15
2022-10-28T03:40:01.366Z,75.17
2022-10-28T03:43:04.337Z,75.09
2022-10-28T03:46:07.182Z,75.21
2022-10-28T03:49:09.997Z,75.21
2022-10-28T03:52:12.870Z,75.28
2022-10-28T03:55:15.812Z,75.28
2022-10-28T03:58:18.677Z,75.33
2022-10-28T04:01:21.743Z,75.35
2022-10-28T04:04:28.398Z,75.26
2022-10-28T04:07:33.621Z,75.28
2022-10-28T04:10:36.863Z,75.25
2022-10-28T04:13:39.773Z,75.35
2022-10-28T04:16:42.580Z,75.33
2022-10-28T04:19:45.475Z,75.39
2022-10-28T04:22:49.656Z,75.27
2022-10-28T04:25:55.355Z,75.35
2022-10-28T04:28:58.203Z,75.43
2022-10-28T04:32:01.065Z,75.51
2022-10-28T04:35:04.795Z,75.61
2022-10-28T04:38:07.678Z,75.45
2022-10-28T04:41:14.356Z,75.56
2022-10-28T04:44:17.215Z,75.68
2022-10-28T04:47:20.106Z,75.73
2022-10-28T04:50:23.002Z,75.71
2022-10-28T04:53:25.821Z,75.76
2022-10-28T04:56:31.058Z,75.78
2022-10-28T04:59:33.910Z,75.74
2022-10-28T05:02:36.701Z,75.66
2022-10-28T05:05:41.048Z,75.73
2022-10-28T05:08:44.030Z,75.59
2022-10-28T05:11:46.916Z,75.69
2022-10-28T05:14:51.235Z,75.53
2022-10-28T05:17:56.357Z,75.62
2022-10-28T05:20:59.520Z,75.61
2022-10-28T05:24:02.910Z,75.54
2022-10-28T05:27:05.909Z,75.53
2022-10-28T05:30:10.029Z,75.57
2022-10-28T05:33:13.599Z,75.63
2022-10-28T05:36:16.492Z,75.71
2022-10-28T05:39:19.571Z,75.70
2022-10-28T05:42:22.547Z,75.66
2022-10-28T05:45:25.572Z,75.80
2022-10-28T05:48:28.445Z,75.75
2022-10-28T05:51:31.286Z,75.61
2022-10-28T05:54:34.266Z,75.78
2022-10-28T05:57:37.145Z,75.62
2022-10-28T06:00:39.979Z,75.69
2022-10-28T06:03:42.858Z,75.72
2022-10-28T06:06:45.714Z,75.71
2022-10-28T06:09:48.555Z,75.65
2022-10-28T06:12:50.094Z,75.68
2022-10-28T06:15:54.805Z,75.70
2022-10-28T06:18:58.377Z,75.64
2022-10-28T06:22:01.486Z,75.68
2022-10-28T06:25:04.661Z,75.65
2022-10-28T06:28:10.379Z,75.58
2022-10-28T06:31:13.483Z,75.76
2022-10-28T06:34:16.475Z,75.66
2022-10-28T06:37:19.383Z,75.85
2022-10-28T06:40:26.134Z,75.74
2022-10-28T06:43:29.310Z,75.62
2022-10-28T06:46:34.899Z,75.77
2022-10-28T06:49:37.880Z,75.71
2022-10-28T06:52:40.753Z,75.72
2022-10-28T06:55:48.837Z,75.81
2022-10-28T06:58:53.415Z,75.89
2022-10-28T07:02:12.222Z,75.77
2022-10-28T07:05:15.493Z,75.93
2022-10-28T07:08:18.550Z,75.79
2022-10-28T07:11:21.795Z,75.96
2022-10-28T07:14:24.784Z,75.91
2022-10-28T07:17:27.712Z,75.93
2022-10-28T07:20:33.090Z,76.02
2022-10-28T07:23:36.102Z,76.10
2022-10-28T07:26:39.872Z,76.05
2022-10-28T07:29:42.890Z,76.11
2022-10-28T07:32:48.377Z,76.13
2022-10-28T07:35:51.345Z,76.20
2022-10-28T07:38:54.953Z,76.19
2022-10-28T07:41:58.100Z,76.10
2022-10-28T07:45:01.053Z,76.18
2022-10-28T07:48:04.939Z,76.30
2022-10-28T07:51:11.837Z,76.33
2022-10-28T07:54:14.912Z,76.36
2022-10-28T07:57:18.460Z,76.44
2022-10-28T08:00:21.400Z,76.41
2022-10-28T08:03:31.384Z,76.54
2022-10-28T08:06:44.356Z,76.48
2022-10-28T08:09:47.440Z,76.56
2022-10-28T08:12:50.609Z,76.65
2022-10-28T08:15:54.932Z,76.60
2022-10-28T08:18:57.965Z,76.59
2022-10-28T08:22:02.447Z,76.68
2022-10-28T08:25:05.634Z,76.62
2022-10-28T08:28:08.610Z,76.72
2022-10-28T08:31:12.634Z,76.72
2022-10-28T08:34:15.755Z,76.62
2022-10-28T08:37:18.845Z,76.79
2022-10-28T08:40:32.665Z,76.75
2022-10-28T08:43:57.981Z,76.67
2022-10-28T08:47:17.911Z,76.66
2022-10-28T08:50:24.948Z,76.63
2022-10-28T08:53:34.579Z,76.45
2022-10-28T08:56:48.991Z,76.35
2022-10-28T08:59:54.097Z,76.23
2022-10-28T09:03:18.383Z,75.98
2022-10-28T09:06:21.741Z,76.00
2022-10-28T09:09:24.834Z,76.00
2022-10-28T09:12:36.872Z,75.89
2022-10-28T09:15:56.181Z,75.93
2022-10-28T09:19:08.943Z,75.78
2022-10-28T09:22:21.443Z,75.75
2022-10-28T09:25:43.925Z,75.75
2022-10-28T09:29:05.427Z,75.74
2022-10-28T09:32:20.843Z,75.51
2022-10-28T09:35:31.364Z,75.56
2022-10-28T09:38:37.787Z,75.49
2022-10-28T09:41:43.997Z,75.30
2022-10-28T09:44:52.941Z,75.34
2022-10-28T09:48:01.717Z,75.28
2022-10-28T09:51:05.865Z,75.20
2022-10-28T09:54:10.840Z,75.16
2022-10-28T09:57:16.507Z,75.01
2022-10-28T10:00:20.785Z,75.06
2022-10-28T10:03:23.767Z,74.91
2022-10-28T10:06:37.022Z,74.86
2022-10-28T10:09:40.511Z,74.74
2022-10-28T10:12:44.839Z,74.58
2022-10-28T10:15:58.237Z,74.49
2022-10-28T10:19:05.403Z,74.47
2022-10-28T10:22:08.604Z,74.30
2022-10-28T10:25:17.674Z,74.33
2022-10-28T10:28:21.685Z,74.20
2022-10-28T10:31:27.352Z,74.30
2022-10-28T10:34:30.989Z,74.21
2022-10-28T10:37:36.220Z,74.36
2022-10-28T10:40:51.430Z,74.37
2022-10-28T10:43:54.397Z,74.10
2022-10-28T10:47:05.046Z,73.96
2022-10-28T10:53:40.326Z,73.74
2022-10-28T10:56:43.425Z,73.48
2022-10-28T10:59:52.228Z,73.09
2022-10-28T11:02:58.626Z,72.95
2022-10-28T11:06:23.659Z,72.75
2022-10-28T11:09:32.561Z,72.49
2022-10-28T11:12:36.787Z,72.40
2022-10-28T11:15:39.800Z,72.30
2022-10-28T11:18:45.069Z,72.26
2022-10-28T11:22:03.122Z,72.11
2022-10-28T11:25:19.569Z,72.07
2022-10-28T11:28:53.668Z,72.09
2022-10-28T11:32:24.147Z,72.02
2022-10-28T11:35:56.456Z,71.93
2022-10-28T11:39:19.716Z,71.85
2022-10-28T11:42:40.107Z,71.74
2022-10-28T11:46:07.492Z,71.75
2022-10-28T11:49:47.685Z,71.65
2022-10-28T11:53:37.196Z,71.42
2022-10-28T11:56:48.093Z,71.45
2022-10-28T12:00:07.106Z,71.48
2022-10-28T12:03:41.068Z,71.43
2022-10-28T12:06:47.078Z,71.46
2022-10-28T12:10:18.023Z,71.40
2022-10-28T12:13:45.076Z,71.40
2022-10-28T12:17:06.573Z,71.31
2022-10-28T12:20:25.387Z,71.25
2022-10-28T12:23:32.403Z,71.28
2022-10-28T12:26:57.591Z,71.15
2022-10-28T12:30:09.217Z,70.98
2022-10-28T12:33:12.153Z,71.03
2022-10-28T12:36:44.273Z,70.94
2022-10-28T12:39:58.274Z,70.97
2022-10-28T12:43:09.535Z,70.82
2022-10-28T12:46:25.978Z,70.77
2022-10-28T12:49:48.214Z,70.67
2022-10-28T12:53:09.640Z,70.68
2022-10-28T12:56:19.044Z,70.73
2022-10-28T12:59:28.219Z,70.70
2022-10-28T13:02:57.484Z,70.70
2022-10-28T13:06:30.690Z,70.82
2022-10-28T13:09:53.427Z,70.71
2022-10-28T13:13:45.979Z,70.67
2022-10-28T13:17:11.246Z,70.65
2022-10-28T13:20:48.159Z,70.57
2022-10-28T13:24:16.590Z,70.69
2022-10-28T13:27:20.653Z,70.74
2022-10-28T13:30:24.111Z,70.79
2022-10-28T13:33:29.454Z,70.77
2022-10-28T13:36:42.916Z,70.77
2022-10-28T13:39:47.102Z,70.85
2022-10-28T13:42:50.105Z,70.72
2022-10-28T13:45:56.708Z,70.66
2022-10-28T13:49:37.764Z,70.68
2022-10-28T13:52:42.989Z,70.68
2022-10-28T13:55:56.429Z,70.68
2022-10-28T13:59:29.355Z,70.75
2022-10-28T14:02:38.817Z,70.74
2022-10-28T14:05:45.058Z,70.73
2022-10-28T14:08:49.376Z,70.63
2022-10-28T14:12:27.017Z,70.62
2022-10-28T14:15:37.841Z,70.53
2022-10-28T14:18:44.196Z,70.63
2022-10-28T14:22:06.290Z,70.67
2022-10-28T14:25:46.321Z,70.55
2022-10-28T14:28:51.003Z,70.54
2022-10-28T14:31:53.925Z,70.57
2022-10-28T14:34:59.262Z,70.67
2022-10-28T14:38:20.374Z,70.47
2022-10-28T14:41:42.785Z,70.49
2022-10-28T14:44:54.625Z,70.51
2022-10-28T14:48:22.409Z,70.46
2022-10-28T14:51:37.344Z,70.58
2022-10-28T14:54:51.627Z,70.47
2022-10-28T14:57:54.752Z,70.53
2022-10-28T15:01:21.962Z,70.56
2022-10-28T15:04:25.127Z,70.54
2022-10-28T15:07:28.092Z,70.55
2022-10-28T15:10:33.904Z,70.54
2022-10-28T15:13:37.001Z,70.56
2022-10-28T15:16:48.077Z,70.63
2022-10-28T15:19:54.451Z,70.58
2022-10-28T15:23:26.815Z,70.59
2022-10-28T15:26:29.852Z,70.56
2022-10-28T15:29:32.922Z,70.56
2022-10-28T15:32:35.874Z,70.61
2022-10-28T15:35:39.878Z,70.63
2022-10-28T15:38:44.376Z,70.64
2022-10-28T15:41:52.543Z,70.67
2022-10-28T15:44:56.881Z,70.61
2022-10-28T15:48:02.004Z,70.65
2022-10-28T15:51:19.694Z,70.70
2022-10-28T15:54:23.418Z,70.68
2022-10-28T15:57:29.814Z,70.68
2022-10-28T16:00:34.074Z,70.62
2022-10-28T16:03:39.894Z,70.67
2022-10-28T16:06:42.734Z,70.68
2022-10-28T16:09:47.683Z,70.73
2022-10-28T16:12:50.847Z,70.68
2022-10-28T16:16:04.538Z,70.66
2022-10-28T16:19:10.539Z,70.69
2022-10-28T16:22:14.508Z,70.77
2022-10-28T16:25:22.968Z,70.70
2022-10-28T16:28:27.294Z,70.75
2022-10-28T16:31:31.004Z,70.74
2022-10-28T16:34:34.825Z,70.74
2022-10-28T16:37:43.210Z,70.66
2022-10-28T16:40:52.037Z,70.78
2022-10-28T16:43:56.025Z,70.74
2022-10-28T16:46:59.182Z,70.76
2022-10-28T16:50:02.021Z,70.78
2022-10-28T16:53:04.902Z,70.78
2022-10-28T16:56:13.432Z,70.85
2022-10-28T16:59:17.572Z,70.91
2022-10-28T17:02:31.890Z,70.89
2022-10-28T17:05:35.887Z,70.96
2022-10-28T17:12:01.850Z,70.94
2022-10-28T17:15:05.048Z,71.05
2022-10-28T17:18:09.889Z,71.09
2022-10-28T17:21:12.919Z,71.11
2022-10-28T17:24:15.761Z,71.12
2022-10-28T17:27:19.278Z,71.20
2022-10-28T17:30:22.340Z,71.34
2022-10-28T17:33:25.273Z,71.28
2022-10-28T17:36:28.128Z,71.24
2022-10-28T17:39:30.987Z,71.21
2022-10-28T17:42:35.231Z,71.20
2022-10-28T17:45:38.203Z,71.24
2022-10-28T17:48:41.334Z,71.25
2022-10-28T17:51:44.210Z,71.33
2022-10-28T17:54:47.125Z,71.30
2022-10-28T17:57:49.944Z,71.28
2022-10-28T18:00:57.636Z,71.27
2022-10-28T18:04:00.950Z,71.28
2022-10-28T18:07:04.117Z,71.30
2022-10-28T18:10:07.736Z,71.29
2022-10-28T18:13:11.233Z,71.32
2022-10-28T18:16:16.952Z,71.31
2022-10-28T18:19:20.361Z,71.27
2022-10-28T18:25:32.026Z,71.46
2022-10-28T18:28:36.314Z,71.39
2022-10-28T18:31:44.788Z,71.45
2022-10-28T18:34:50.324Z,71.42
2022-10-28T18:37:54.062Z,71.51
2022-10-28T18:40:58.030Z,71.60
2022-10-28T18:44:04.463Z,71.59
2022-10-28T18:47:07.342Z,71.56
2022-10-28T18:50:10.346Z,71.56
2022-10-28T18:53:13.157Z,71.59
2022-10-28T18:56:21.592Z,71.69
2022-10-28T18:59:24.632Z,71.68
2022-10-28T19:02:28.932Z,71.77
2022-10-28T19:05:32.758Z,71.79
2022-10-28T19:08:35.654Z,71.75
2022-10-28T19:11:38.535Z,71.78
2022-10-28T19:14:41.382Z,71.79
2022-10-28T19:17:44.215Z,71.71
2022-10-28T19:20:47.281Z,71.75
2022-10-28T19:23:51.173Z,71.64
2022-10-28T19:26:54.053Z,71.76
2022-10-28T19:29:59.793Z,71.76
2022-10-28T19:33:02.663Z,71.83
2022-10-28T19:36:13.053Z,71.87
2022-10-28T19:39:15.947Z,71.88
2022-10-28T19:42:18.806Z,71.89
2022-10-28T19:45:21.676Z,71.93
2022-10-28T19:48:24.577Z,71.87
2022-10-28T19:51:30.389Z,71.98
2022-10-28T19:54:33.511Z,71.91
2022-10-28T19:57:36.550Z,72.00
2022-10-28T20:00:39.478Z,71.99
2022-10-28T20:03:47.978Z,71.89
2022-10-28T20:06:52.013Z,72.02
2022-10-28T20:09:55.047Z,71.98
2022-10-28T20:12:58.096Z,71.97
2022-10-28T20:16:10.589Z,71.94
2022-10-28T20:19:13.668Z,72.02
2022-10-28T20:22:17.245Z,71.95
2022-10-28T20:25:20.064Z,71.88
2022-10-28T20:28:22.942Z,71.86
2022-10-28T20:31:28.594Z,71.95
2022-10-28T20:34:31.406Z,71.98
2022-10-28T20:37:34.299Z,71.96
2022-10-28T20:40:37.106Z,72.11
2022-10-28T20:43:39.956Z,72.10
2022-10-28T20:46:45.509Z,72.11
2022-10-28T20:49:48.410Z,72.17
2022-10-28T20:52:51.292Z,72.17
2022-10-28T20:55:56.131Z,72.14
2022-10-28T20:58:59.592Z,72.12
2022-10-28T21:02:02.696Z,72.18
2022-10-28T21:05:06.825Z,72.21
2022-10-28T21:08:11.223Z,72.09
2022-10-28T21:11:15.669Z,72.27
2022-10-28T21:14:18.537Z,72.13
2022-10-28T21:17:21.489Z,72.17
2022-10-28T21:20:24.630Z,72.23
2022-10-28T21:23:29.564Z,72.23
2022-10-28T21:26:32.663Z,72.31
2022-10-28T21:29:35.664Z,72.32
2022-10-28T21:32:38.685Z,72.24
2022-10-28T21:35:41.577Z,72.22
2022-10-28T21:38:44.878Z,72.21
2022-10-28T21:41:47.780Z,72.45
2022-10-28T21:44:50.813Z,72.33
2022-10-28T21:47:54.792Z,72.45
2022-10-28T21:51:00.042Z,72.40
2022-10-28T21:54:03.151Z,72.43
2022-10-28T21:57:07.168Z,72.51
2022-10-28T22:00:10.748Z,72.58
2022-10-28T22:03:17.678Z,72.51
2022-10-28T22:06:21.056Z,72.60
2022-10-28T22:09:24.038Z,72.62
2022-10-28T22:12:26.914Z,72.54
2022-10-28T22:15:29.751Z,72.60
2022-10-28T22:18:34.644Z,72.53
2022-10-28T22:21:41.135Z,72.62
2022-10-28T22:24:43.999Z,72.57
2022-10-28T22:27:46.890Z,72.51
2022-10-28T22:30:49.779Z,72.58
2022-10-28T22:33:53.076Z,72.62
2022-10-28T22:36:55.972Z,72.57
2022-10-28T22:39:58.869Z,72.60
2022-10-28T22:43:01.907Z,72.65
2022-10-28T22:46:05.428Z,72.58
2022-10-28T22:49:08.313Z,72.51
2022-10-28T22:52:11.123Z,72.50
2022-10-28T22:55:14.088Z,72.68
2022-10-28T22:58:16.959Z,72.52
2022-10-28T23:01:20.310Z,72.67
2022-10-28T23:04:23.249Z,72.51
2022-10-28T23:07:26.183Z,72.60
2022-10-28T23:10:29.704Z,72.67
2022-10-28T23:13:32.780Z,72.71
2022-10-28T23:16:35.768Z,72.67
2022-10-28T23:19:41.023Z,72.64
2022-10-28T23:22:43.915Z,72.68
2022-10-28T23:25:54.204Z,72.60
2022-10-28T23:28:59.335Z,72.61
2022-10-28T23:32:02.230Z,72.71
2022-10-28T23:35:06.526Z,72.67
2022-10-28T23:38:11.820Z,72.67
2022-10-28T23:41:18.802Z,72.74
2022-10-28T23:44:22.184Z,72.65
2022-10-28T23:47:25.014Z,72.70
2022-10-28T23:50:27.926Z,72.71
2022-10-28T23:53:31.230Z,72.75
2022-10-28T23:56:34.511Z,72.79
2022-10-28T23:59:37.404Z,72.83
